Time;durP1;ratioP1;P1;durP2;ratioP2;P2;SDS_P1;SDS_P2;PMS_P1;PMS_P2;Temp;Humidity;BMP_temperature;BMP_pressure;BME280_temperature;BME280_humidity;BME280_pressure;Samples;Min_cycle;Max_cycle;Signal;HPM_P1;HPM_P2
2022/06/01 00:00:51;;;;;;;6.27;5.40;;;12.50;99.90;;;;;;5069602;28;20487;-66
2022/06/01 00:03:20;;;;;;;6.40;5.33;;;12.40;99.90;;;;;;5070720;28;20446;-66
2022/06/01 00:05:47;;;;;;;6.30;5.17;;;12.40;99.90;;;;;;5070432;28;20443;-67
2022/06/01 00:08:13;;;;;;;5.50;5.00;;;12.30;99.90;;;;;;5070672;28;20987;-66
2022/06/01 00:10:40;;;;;;;5.93;5.33;;;12.30;99.90;;;;;;5069972;28;20473;-67
2022/06/01 00:13:07;;;;;;;6.03;5.43;;;12.30;99.90;;;;;;5070919;28;20451;-67
2022/06/01 00:15:34;;;;;;;12.27;6.00;;;12.20;99.90;;;;;;5070209;28;20493;-68
2022/06/01 00:18:01;;;;;;;6.43;5.77;;;12.10;99.90;;;;;;5069791;28;20826;-67
2022/06/01 00:20:30;;;;;;;8.73;6.67;;;12.20;99.90;;;;;;5069676;28;20495;-67
2022/06/01 00:22:57;;;;;;;6.70;6.00;;;12.20;99.90;;;;;;5070403;28;20526;-67
2022/06/01 00:25:25;;;;;;;7.90;5.90;;;12.00;99.90;;;;;;5070057;28;20458;-67
2022/06/01 00:27:52;;;;;;;6.40;5.80;;;12.00;99.90;;;;;;5070648;28;20447;-67
2022/06/01 00:30:19;;;;;;;6.27;5.43;;;11.90;99.90;;;;;;5069323;28;20458;-67
2022/06/01 00:32:46;;;;;;;6.40;4.90;;;11.90;99.90;;;;;;5070090;28;20447;-67
2022/06/01 00:35:16;;;;;;;7.37;5.80;;;11.80;99.90;;;;;;5069584;28;20995;-67
2022/06/01 00:37:44;;;;;;;5.97;5.47;;;11.80;99.90;;;;;;5069925;28;21204;-70
2022/06/01 00:40:14;;;;;;;6.20;5.43;;;11.80;99.90;;;;;;5068987;28;20976;-69
2022/06/01 00:42:43;;;;;;;6.67;5.37;;;11.80;99.90;;;;;;5069808;28;20442;-64
2022/06/01 00:45:12;;;;;;;6.80;5.67;;;11.60;99.90;;;;;;5069425;28;20538;-68
2022/06/01 00:47:39;;;;;;;8.27;5.73;;;11.50;99.90;;;;;;5069819;28;20546;-67
2022/06/01 00:50:12;;;;;;;9.03;6.83;;;11.50;99.90;;;;;;5068919;28;20466;-66
2022/06/01 00:52:45;;;;;;;8.87;7.83;;;11.50;99.90;;;;;;5069947;28;20821;-69
2022/06/01 00:55:17;;;;;;;8.13;7.43;;;11.50;99.90;;;;;;5069253;28;21003;-67
2022/06/01 00:57:45;;;;;;;7.90;7.10;;;11.50;99.90;;;;;;5069888;28;20458;-68
2022/06/01 01:00:16;;;;;;;8.63;7.67;;;11.60;99.90;;;;;;5068779;28;20827;-68
2022/06/01 01:02:43;;;;;;;7.97;7.10;;;11.50;99.90;;;;;;5069827;28;20460;-67
2022/06/01 01:05:13;;;;;;;13.33;7.07;;;11.50;99.90;;;;;;5069462;28;20443;-66
2022/06/01 01:07:41;;;;;;;7.50;6.80;;;11.40;99.90;;;;;;5069385;28;21031;-69
2022/06/01 01:10:09;;;;;;;8.30;7.50;;;11.30;99.90;;;;;;5068724;28;20467;-68
2022/06/01 01:15:22;;;;;;;8.43;7.57;;;11.10;99.90;;;;;;5069255;28;20497;-69
2022/06/01 01:17:50;;;;;;;9.80;6.40;;;11.00;99.90;;;;;;5069438;28;21011;-68
2022/06/01 01:20:18;;;;;;;7.80;6.67;;;10.90;99.90;;;;;;5068628;28;20475;-66
2022/06/01 01:22:52;;;;;;;10.77;7.10;;;11.00;99.90;;;;;;5069498;28;20833;-68
2022/06/01 01:25:25;;;;;;;7.50;6.70;;;10.90;99.90;;;;;;5069188;28;20442;-68
2022/06/01 01:27:54;;;;;;;7.10;6.40;;;10.90;99.90;;;;;;5069640;28;20873;-66
2022/06/01 01:30:33;;;;;;;8.03;7.23;;;10.80;99.90;;;;;;5072760;28;20557;-69
2022/06/01 01:33:03;;;;;;;7.67;6.97;;;10.80;99.90;;;;;;5073543;28;20542;-67
2022/06/01 01:35:30;;;;;;;7.63;6.40;;;11.00;99.90;;;;;;5072841;28;20501;-67
2022/06/01 01:37:59;;;;;;;8.23;6.87;;;10.90;99.90;;;;;;5073418;28;21018;-67
2022/06/01 01:40:28;;;;;;;8.50;7.57;;;10.80;99.90;;;;;;5072715;28;20477;-68
2022/06/01 01:42:56;;;;;;;7.77;6.70;;;10.80;99.90;;;;;;5073256;28;20822;-68
2022/06/01 01:45:27;;;;;;;7.90;7.00;;;10.80;99.90;;;;;;5072915;28;20443;-65
2022/06/01 01:47:54;;;;;;;7.33;6.67;;;10.70;99.90;;;;;;5073383;28;20467;-69
2022/06/01 01:50:22;;;;;;;8.53;6.60;;;10.60;99.90;;;;;;5072057;28;20998;-68
2022/06/01 01:52:49;;;;;;;6.80;6.07;;;10.70;99.90;;;;;;5073160;28;20455;-68
2022/06/01 01:55:22;;;;;;;9.17;7.00;;;10.80;99.90;;;;;;5072709;28;20482;-68
2022/06/01 01:58:28;;;;;;;12.10;7.83;;;10.70;99.90;;;;;;5073407;28;20542;-67
2022/06/01 02:01:01;;;;;;;7.93;7.10;;;10.70;99.90;;;;;;5071697;28;20466;-66
2022/06/01 02:03:33;;;;;;;8.10;7.30;;;10.60;99.90;;;;;;5073029;28;20435;-68
2022/06/01 02:06:07;;;;;;;8.23;7.43;;;10.60;99.90;;;;;;5072231;28;20442;-66
2022/06/01 02:08:38;;;;;;;11.63;8.30;;;10.60;99.90;;;;;;5072923;28;20453;-70
2022/06/01 02:13:59;;;;;;;11.50;8.00;;;10.80;99.90;;;;;;5072756;28;20426;-68
2022/06/01 02:16:29;;;;;;;9.50;8.47;;;10.70;99.90;;;;;;5072360;28;20478;-68
2022/06/01 02:18:59;;;;;;;9.37;8.40;;;10.70;99.90;;;;;;5071553;28;20945;-67
2022/06/01 02:21:29;;;;;;;9.03;8.10;;;10.70;99.90;;;;;;5071748;28;20469;-67
2022/06/01 02:23:59;;;;;;;8.40;7.57;;;10.70;99.90;;;;;;5072452;28;20446;-68
2022/06/01 02:26:26;;;;;;;10.90;8.20;;;10.70;99.90;;;;;;5072162;28;20454;-67
2022/06/01 02:28:59;;;;;;;8.07;7.37;;;10.70;99.90;;;;;;5072689;28;20449;-67
2022/06/01 02:31:28;;;;;;;9.73;6.90;;;10.80;99.90;;;;;;5071872;28;20846;-64
2022/06/01 02:33:55;;;;;;;7.57;6.87;;;10.80;99.90;;;;;;5072482;28;20948;-67
2022/06/01 02:36:26;;;;;;;9.50;7.60;;;10.70;99.90;;;;;;5071925;28;20824;-67
2022/06/01 02:38:55;;;;;;;8.67;7.73;;;10.60;99.90;;;;;;5072703;28;20454;-67
2022/06/01 02:44:08;;;;;;;9.33;7.67;;;10.40;99.90;;;;;;5072372;28;20420;-68
2022/06/01 02:46:36;;;;;;;7.70;6.97;;;10.20;99.90;;;;;;5072029;28;20455;-67
2022/06/01 02:49:03;;;;;;;8.90;7.77;;;10.20;99.90;;;;;;5072581;28;20447;-67
2022/06/01 02:51:29;;;;;;;8.80;7.87;;;10.20;99.90;;;;;;5071532;28;21001;-67
2022/06/01 02:53:56;;;;;;;7.83;7.00;;;10.10;99.90;;;;;;5072403;28;20945;-68
2022/06/01 02:56:25;;;;;;;7.97;7.20;;;10.00;99.90;;;;;;5071857;28;21015;-67
2022/06/01 02:58:52;;;;;;;7.77;7.07;;;9.90;99.90;;;;;;5072297;28;20455;-67
2022/06/01 03:01:20;;;;;;;8.03;7.23;;;9.80;99.90;;;;;;5071135;28;20475;-69
2022/06/01 03:03:47;;;;;;;7.97;7.00;;;9.90;99.90;;;;;;5072015;28;20479;-68
2022/06/01 03:06:14;;;;;;;8.53;7.83;;;9.90;99.90;;;;;;5071893;28;20485;-67
2022/06/01 03:08:41;;;;;;;8.10;7.20;;;9.90;99.90;;;;;;5072168;28;20820;-66
2022/06/01 03:11:08;;;;;;;9.10;7.60;;;9.80;99.90;;;;;;5071006;28;20475;-65
2022/06/01 03:13:35;;;;;;;10.83;8.37;;;9.80;99.90;;;;;;5071754;28;20453;-68
2022/06/01 03:16:02;;;;;;;8.90;8.00;;;9.80;99.90;;;;;;5071178;28;20483;-66
2022/06/01 03:18:31;;;;;;;9.17;7.70;;;9.70;99.90;;;;;;5071781;28;20498;-69
2022/06/01 03:20:58;;;;;;;10.80;9.50;;;9.70;99.90;;;;;;5070869;28;20890;-67
2022/06/01 03:23:25;;;;;;;8.83;7.60;;;9.70;99.90;;;;;;5071493;28;20509;-69
2022/06/01 03:25:52;;;;;;;10.13;8.00;;;9.80;99.90;;;;;;5071197;28;20443;-67
2022/06/01 03:28:19;;;;;;;9.20;8.30;;;9.70;99.90;;;;;;5071208;28;20451;-68
2022/06/01 03:30:46;;;;;;;9.13;8.23;;;9.90;99.90;;;;;;5070726;28;20471;-68
2022/06/01 03:33:13;;;;;;;8.67;7.70;;;9.90;99.90;;;;;;5071417;28;20484;-69
2022/06/01 03:35:41;;;;;;;8.33;7.63;;;9.90;99.90;;;;;;5070887;28;20529;-67
2022/06/01 03:38:08;;;;;;;9.17;8.27;;;9.90;99.90;;;;;;5071304;28;20450;-67
2022/06/01 03:40:38;;;;;;;9.93;8.93;;;9.90;99.90;;;;;;5070379;28;20555;-69
2022/06/01 03:43:06;;;;;;;9.17;8.33;;;9.90;99.90;;;;;;5071216;28;20454;-69
2022/06/01 03:48:17;;;;;;;9.63;8.13;;;10.00;99.90;;;;;;5071240;28;20423;-69
2022/06/01 03:50:46;;;;;;;8.90;7.00;;;10.10;99.90;;;;;;5070304;28;20471;-68
2022/06/01 03:53:13;;;;;;;9.23;7.43;;;10.10;99.90;;;;;;5070711;28;20886;-67
2022/06/01 03:55:41;;;;;;;9.10;7.50;;;10.10;99.90;;;;;;5070727;28;20586;-69
2022/06/01 03:58:12;;;;;;;7.70;6.90;;;10.10;99.90;;;;;;5071180;28;20454;-67
2022/06/01 04:00:39;;;;;;;9.03;7.50;;;10.10;99.90;;;;;;5068044;28;20555;-68
2022/06/01 04:03:06;;;;;;;8.07;7.20;;;10.00;99.90;;;;;;5070692;28;20451;-64
2022/06/01 04:05:33;;;;;;;9.00;8.10;;;10.10;99.90;;;;;;5070281;28;20496;-67
2022/06/01 04:08:02;;;;;;;8.13;7.33;;;10.10;99.90;;;;;;5070444;28;20458;-67
2022/06/01 04:10:29;;;;;;;9.30;7.23;;;10.20;99.90;;;;;;5068786;28;20483;-67
2022/06/01 04:12:56;;;;;;;7.93;7.13;;;10.20;99.90;;;;;;5070557;28;20995;-69
2022/06/01 04:15:23;;;;;;;8.57;7.70;;;10.20;99.90;;;;;;5070176;28;20896;-69
2022/06/01 04:17:50;;;;;;;8.13;7.33;;;10.30;99.90;;;;;;5070629;28;20483;-67
2022/06/01 04:20:17;;;;;;;8.03;7.33;;;10.30;99.90;;;;;;5069736;28;20569;-68
2022/06/01 04:22:45;;;;;;;8.40;7.60;;;10.40;99.90;;;;;;5070612;28;20450;-70
2022/06/01 04:25:15;;;;;;;11.27;7.60;;;10.40;99.90;;;;;;5070098;28;20455;-68
2022/06/01 04:27:42;;;;;;;8.47;7.40;;;10.60;99.90;;;;;;5070664;28;20447;-69
2022/06/01 04:30:11;;;;;;;9.50;7.30;;;10.70;99.90;;;;;;5069362;28;20473;-69
2022/06/01 04:32:38;;;;;;;8.03;6.73;;;10.70;99.90;;;;;;5071668;28;20447;-68
2022/06/01 04:35:07;;;;;;;7.47;6.87;;;10.80;99.90;;;;;;5070459;28;20602;-67
2022/06/01 04:37:34;;;;;;;9.53;7.83;;;10.80;99.90;;;;;;5069999;28;20450;-68
2022/06/01 04:40:01;;;;;;;7.40;6.70;;;10.90;99.90;;;;;;5069265;28;20469;-68
2022/06/01 04:42:29;;;;;;;8.93;8.03;;;11.00;99.90;;;;;;5070362;28;20975;-66
2022/06/01 04:44:56;;;;;;;7.77;7.07;;;11.00;99.90;;;;;;5069360;28;20550;-68
2022/06/01 04:47:23;;;;;;;8.40;7.10;;;10.90;99.90;;;;;;5066492;28;20975;-67
2022/06/01 04:49:50;;;;;;;8.93;8.03;;;11.00;99.90;;;;;;5069568;28;20447;-67
2022/06/01 04:52:17;;;;;;;7.10;6.40;;;11.00;99.90;;;;;;5069302;28;20451;-67
2022/06/01 04:54:44;;;;;;;8.03;7.10;;;11.10;99.90;;;;;;5076159;28;20443;-66
2022/06/01 04:57:11;;;;;;;6.97;6.07;;;11.20;99.90;;;;;;5069425;28;20562;-66
2022/06/01 04:59:42;;;;;;;7.53;6.50;;;11.40;99.90;;;;;;5069117;28;20451;-66
2022/06/01 05:02:09;;;;;;;7.23;6.53;;;11.40;99.90;;;;;;5061221;28;20511;-68
2022/06/01 05:04:36;;;;;;;8.10;6.10;;;11.60;99.90;;;;;;5059542;28;20459;-66
2022/06/01 05:07:03;;;;;;;10.00;6.03;;;11.70;99.90;;;;;;5064251;28;20943;-65
2022/06/01 05:09:30;;;;;;;7.20;6.23;;;11.90;99.90;;;;;;5069138;28;20451;-68
2022/06/01 05:11:57;;;;;;;7.43;6.43;;;12.10;99.90;;;;;;5067868;28;20542;-67
2022/06/01 05:14:24;;;;;;;7.20;6.50;;;12.20;99.90;;;;;;5068612;28;20496;-68
2022/06/01 05:16:52;;;;;;;6.80;6.20;;;12.40;99.90;;;;;;5069612;28;20485;-67
2022/06/01 05:19:19;;;;;;;6.50;5.80;;;12.60;99.90;;;;;;5069618;28;20451;-67
2022/06/01 05:21:46;;;;;;;8.23;5.83;;;12.70;99.90;;;;;;5068834;28;20459;-69
2022/06/01 05:24:16;;;;;;;6.00;5.40;;;12.90;99.90;;;;;;5068938;28;20444;-67
2022/06/01 05:26:42;;;;;;;5.73;5.00;;;12.90;99.90;;;;;;5069119;28;20451;-67
2022/06/01 05:29:09;;;;;;;6.03;4.97;;;13.10;99.90;;;;;;5069606;28;20534;-65
2022/06/01 05:31:36;;;;;;;6.37;4.83;;;13.20;99.90;;;;;;5069061;28;20459;-67
2022/06/01 05:34:04;;;;;;;7.20;6.00;;;13.30;99.90;;;;;;5069725;28;20546;-65
2022/06/01 05:36:31;;;;;;;5.90;5.27;;;13.40;99.90;;;;;;5067124;28;20487;-66
2022/06/01 05:38:58;;;;;;;6.10;5.50;;;13.50;99.90;;;;;;5069639;28;20479;-65
2022/06/01 05:41:25;;;;;;;8.63;5.50;;;13.60;99.90;;;;;;5068807;28;20489;-67
2022/06/01 05:43:52;;;;;;;6.10;4.90;;;13.70;99.90;;;;;;5069795;28;20451;-66
2022/06/01 05:46:19;;;;;;;7.23;4.63;;;13.80;99.90;;;;;;5069322;28;20937;-66
2022/06/01 05:48:46;;;;;;;5.23;4.73;;;14.00;99.90;;;;;;5069808;28;21012;-66
2022/06/01 05:51:14;;;;;;;5.00;4.50;;;14.10;99.90;;;;;;5068924;28;20463;-68
2022/06/01 05:53:41;;;;;;;7.50;5.33;;;14.20;99.90;;;;;;5069742;28;20443;-67
2022/06/01 05:56:08;;;;;;;5.10;4.40;;;14.40;99.90;;;;;;5069318;28;20478;-67
2022/06/01 05:58:35;;;;;;;7.60;4.73;;;14.60;99.90;;;;;;5069439;28;20542;-67
2022/06/01 06:01:05;;;;;;;12.80;7.10;;;14.60;99.90;;;;;;5068068;28;20587;-66
2022/06/01 06:03:33;;;;;;;6.03;4.73;;;14.70;99.90;;;;;;5069311;28;20858;-67
2022/06/01 06:06:13;;;;;;;6.87;5.17;;;14.90;99.90;;;;;;5069109;28;20837;-66
2022/06/01 06:08:44;;;;;;;5.17;4.57;;;15.00;99.90;;;;;;5069368;28;20935;-66
2022/06/01 06:11:11;;;;;;;6.33;5.37;;;15.10;99.90;;;;;;5068549;28;20467;-66
2022/06/01 06:13:38;;;;;;;6.43;4.40;;;15.20;99.90;;;;;;5069511;28;20446;-67
2022/06/01 06:16:05;;;;;;;5.10;4.50;;;15.30;99.90;;;;;;5070605;28;21025;-66
2022/06/01 06:18:32;;;;;;;10.73;5.40;;;15.30;99.90;;;;;;5073068;28;20447;-67
2022/06/01 06:20:59;;;;;;;7.50;4.97;;;15.40;99.90;;;;;;5072077;28;20477;-65
2022/06/01 06:23:26;;;;;;;6.43;4.00;;;15.60;99.90;;;;;;5072905;28;20453;-66
2022/06/01 06:25:54;;;;;;;6.60;4.07;;;15.70;99.90;;;;;;5072266;28;21008;-66
2022/06/01 06:28:21;;;;;;;8.27;5.50;;;15.70;99.90;;;;;;5072637;28;20533;-66
2022/06/01 06:30:48;;;;;;;6.00;5.17;;;15.90;99.90;;;;;;5071914;28;21007;-66
2022/06/01 06:33:15;;;;;;;9.67;5.80;;;15.90;99.90;;;;;;5072633;28;20489;-66
2022/06/01 06:35:42;;;;;;;4.83;4.33;;;16.00;99.90;;;;;;5072612;28;20526;-67
2022/06/01 06:38:09;;;;;;;6.33;4.03;;;16.10;99.90;;;;;;5072389;28;20501;-67
2022/06/01 06:40:36;;;;;;;6.87;4.50;;;16.20;99.90;;;;;;5071404;28;20471;-68
2022/06/01 06:43:05;;;;;;;5.23;4.27;;;16.40;99.90;;;;;;5072103;28;20526;-68
2022/06/01 06:45:32;;;;;;;6.93;4.17;;;16.50;99.90;;;;;;5072056;28;20465;-67
2022/06/01 06:47:59;;;;;;;6.13;4.47;;;16.50;99.90;;;;;;5072323;28;20882;-67
2022/06/01 06:50:26;;;;;;;6.90;4.10;;;16.60;99.90;;;;;;5071287;28;20494;-67
2022/06/01 06:52:52;;;;;;;6.07;4.10;;;16.80;99.90;;;;;;5072135;28;20451;-66
2022/06/01 06:55:19;;;;;;;4.40;3.63;;;16.80;99.90;;;;;;5071757;28;20447;-67
2022/06/01 06:57:46;;;;;;;6.83;4.53;;;16.90;99.90;;;;;;5072050;28;20574;-67
2022/06/01 07:00:16;;;;;;;6.03;4.17;;;17.00;99.90;;;;;;5071416;28;20471;-67
2022/06/01 07:02:42;;;;;;;6.60;3.93;;;17.10;99.90;;;;;;5061353;28;20454;-67
2022/06/01 07:06:08;;;;;;;7.13;4.40;;;17.20;99.90;;;;;;5065549;28;20444;-67
2022/06/01 07:07:57;;;;;;;5.50;4.50;;;17.40;99.90;;;;;;5063414;28;20439;-67
2022/06/01 07:10:23;;;;;;;8.20;4.00;;;17.70;99.90;;;;;;5062045;28;20466;-68
2022/06/01 07:12:50;;;;;;;6.43;3.87;;;17.80;99.90;;;;;;5062875;28;20465;-68
2022/06/01 07:15:19;;;;;;;4.93;4.00;;;17.90;99.90;;;;;;5067673;28;20973;-66
2022/06/01 07:17:45;;;;;;;6.10;3.63;;;18.00;99.90;;;;;;5071540;28;20544;-66
2022/06/01 07:20:12;;;;;;;7.70;4.00;;;18.10;99.90;;;;;;5070712;28;20471;-68
2022/06/01 07:22:39;;;;;;;5.63;3.80;;;18.30;99.90;;;;;;5071658;28;20447;-67
2022/06/01 07:25:07;;;;;;;6.63;3.80;;;18.40;99.90;;;;;;5071619;28;20447;-66
2022/06/01 07:27:34;;;;;;;4.63;3.20;;;18.40;99.90;;;;;;5069007;28;20443;-66
2022/06/01 07:30:00;;;;;;;5.37;3.33;;;18.50;99.90;;;;;;5066182;28;20471;-67
2022/06/01 07:32:29;;;;;;;3.87;3.47;;;18.60;99.90;;;;;;5061399;28;20452;-66
2022/06/01 07:34:56;;;;;;;5.53;4.10;;;18.70;99.90;;;;;;5061073;28;20448;-66
2022/06/01 07:43:08;;;;;;;4.03;3.60;;;19.10;99.90;;;;;;5062399;28;20459;-66
2022/06/01 07:45:35;;;;;;;6.67;3.63;;;19.20;99.90;;;;;;5061724;28;20668;-67
2022/06/01 07:48:03;;;;;;;4.20;3.20;;;19.40;99.90;;;;;;5060393;28;20446;-68
2022/06/01 07:50:30;;;;;;;3.93;3.10;;;19.50;99.90;;;;;;5060606;28;20566;-67
2022/06/01 07:52:57;;;;;;;4.60;3.70;;;19.70;99.90;;;;;;5061433;28;20466;-67
2022/06/01 07:55:24;;;;;;;7.47;3.40;;;19.70;99.90;;;;;;5066422;28;20907;-67
2022/06/01 07:57:51;;;;;;;4.27;3.87;;;19.70;99.90;;;;;;5066554;28;20482;-67
2022/06/01 08:00:19;;;;;;;4.60;3.43;;;19.70;99.90;;;;;;5067399;28;20570;-67
2022/06/01 08:02:46;;;;;;;4.97;3.30;;;19.70;99.90;;;;;;5070380;28;21093;-68
2022/06/01 08:05:17;;;;;;;3.93;3.40;;;19.90;99.90;;;;;;5070119;28;20220;-66
2022/06/01 08:07:45;;;;;;;3.73;3.13;;;19.90;99.90;;;;;;5054912;28;20439;-68
2022/06/01 08:10:13;;;;;;;4.10;3.00;;;20.10;99.90;;;;;;5069579;28;20831;-67
2022/06/01 08:15:26;;;;;;;5.07;2.77;;;20.50;99.90;;;;;;5070217;28;20422;-68
2022/06/01 08:17:52;;;;;;;6.27;2.70;;;20.90;99.90;;;;;;5070641;28;20487;-69
2022/06/01 08:20:21;;;;;;;4.00;2.87;;;21.20;99.90;;;;;;5069666;28;20984;-67
2022/06/01 08:22:48;;;;;;;4.13;2.80;;;21.40;99.90;;;;;;5070846;28;20565;-66
2022/06/01 08:25:17;;;;;;;4.07;3.00;;;21.20;99.90;;;;;;5070757;28;20447;-66
2022/06/01 08:27:44;;;;;;;4.47;3.23;;;21.10;99.90;;;;;;5070152;28;20447;-66
2022/06/01 08:30:12;;;;;;;4.87;2.90;;;20.90;99.90;;;;;;5069743;28;20486;-67
2022/06/01 08:32:39;;;;;;;7.20;2.83;;;20.90;99.90;;;;;;5070433;28;20469;-67
2022/06/01 08:35:08;;;;;;;3.27;2.40;;;21.20;98.70;;;;;;5070484;28;20439;-67
2022/06/01 08:37:36;;;;;;;3.93;2.50;;;21.60;97.60;;;;;;5070288;28;20486;-68
2022/06/01 08:40:04;;;;;;;3.40;1.90;;;22.20;95.90;;;;;;5069449;28;21068;-67
2022/06/01 08:42:32;;;;;;;5.23;2.30;;;22.50;87.60;;;;;;5070074;28;20446;-66
2022/06/01 08:45:04;;;;;;;4.23;2.30;;;22.80;87.40;;;;;;5070089;28;20451;-67
2022/06/01 08:47:35;;;;;;;2.90;1.93;;;23.10;89.10;;;;;;5070306;28;20449;-67
2022/06/01 08:50:05;;;;;;;5.00;2.40;;;23.00;84.00;;;;;;5069521;28;20473;-68
2022/06/01 08:52:32;;;;;;;7.33;2.30;;;22.90;84.90;;;;;;5070303;28;20474;-68
2022/06/01 08:55:00;;;;;;;4.20;2.50;;;22.40;86.90;;;;;;5069748;28;20451;-67
2022/06/01 08:57:31;;;;;;;6.03;3.10;;;22.00;90.20;;;;;;5070250;28;20508;-66
2022/06/01 09:00:04;;;;;;;4.67;3.60;;;21.70;93.40;;;;;;5069478;28;20475;-67
2022/06/01 09:02:44;;;;;;;5.43;3.40;;;21.50;95.70;;;;;;5069837;28;20888;-66
2022/06/01 09:05:15;;;;;;;3.47;2.53;;;21.40;95.60;;;;;;5069472;28;20459;-67
2022/06/01 09:07:48;;;;;;;5.50;2.83;;;21.40;95.20;;;;;;5069874;28;20475;-67
2022/06/01 09:10:36;;;;;;;4.13;3.20;;;21.40;94.10;;;;;;5068988;28;20835;-67
2022/06/01 09:13:08;;;;;;;5.77;3.20;;;21.20;92.90;;;;;;5070229;28;20521;-68
2022/06/01 09:15:45;;;;;;;4.00;2.70;;;21.00;93.80;;;;;;5072581;28;20526;-67
2022/06/01 09:18:13;;;;;;;3.33;2.27;;;21.00;92.60;;;;;;5073948;28;20481;-66
2022/06/01 09:23:25;;;;;;;2.90;2.50;;;21.50;92.00;;;;;;5069631;28;20426;-67
2022/06/01 09:25:57;;;;;;;6.90;3.10;;;21.90;91.60;;;;;;5069142;28;20877;-68
2022/06/01 09:28:26;;;;;;;3.70;2.40;;;22.00;91.80;;;;;;5069465;28;20801;-66
2022/06/01 09:30:57;;;;;;;5.20;2.40;;;21.90;90.20;;;;;;5068459;28;21042;-67
2022/06/01 09:33:27;;;;;;;5.63;2.60;;;21.90;90.40;;;;;;5069481;28;20453;-67
2022/06/01 09:36:05;;;;;;;4.30;2.50;;;22.00;90.70;;;;;;5069279;28;20458;-68
2022/06/01 09:38:40;;;;;;;5.53;2.60;;;22.30;90.60;;;;;;5069524;28;20486;-68
2022/06/01 09:41:11;;;;;;;5.17;2.60;;;22.50;90.40;;;;;;5068848;28;20549;-67
2022/06/01 09:43:40;;;;;;;4.03;2.10;;;22.60;88.10;;;;;;5069452;28;20447;-67
2022/06/01 09:46:08;;;;;;;4.40;2.60;;;22.70;87.80;;;;;;5068983;28;20478;-68
2022/06/01 09:48:37;;;;;;;3.27;2.90;;;22.60;88.10;;;;;;5069260;28;20470;-66
2022/06/01 09:51:20;;;;;;;4.10;2.10;;;22.80;88.60;;;;;;5072039;28;20554;-67
2022/06/01 09:53:50;;;;;;;4.00;2.57;;;23.40;87.80;;;;;;5073177;28;20446;-67
2022/06/01 09:56:30;;;;;;;7.30;2.70;;;24.30;84.20;;;;;;5072877;28;20489;-69
2022/06/01 10:07:22;;;;;;;3.40;2.40;;;25.70;77.70;;;;;;5072413;28;20453;-68
2022/06/01 10:09:51;;;;;;;4.50;2.33;;;24.50;76.00;;;;;;5067591;28;20463;-67
2022/06/01 10:12:30;;;;;;;8.07;2.50;;;23.80;78.40;;;;;;5068847;28;20455;-67
2022/06/01 10:14:57;;;;;;;6.03;2.40;;;23.30;79.60;;;;;;5063484;28;20878;-68
2022/06/01 10:17:29;;;;;;;5.57;2.23;;;23.50;79.70;;;;;;5064238;28;20487;-67
2022/06/01 10:20:15;;;;;;;5.43;2.57;;;24.60;78.20;;;;;;5063568;28;20452;-69
2022/06/01 10:22:46;;;;;;;3.73;2.10;;;25.40;77.00;;;;;;5065668;28;20443;-68
2022/06/01 10:25:17;;;;;;;3.10;2.10;;;25.40;74.40;;;;;;5068438;28;20449;-67
2022/06/01 10:27:54;;;;;;;4.63;1.70;;;25.50;73.80;;;;;;5062234;28;20439;-68
2022/06/01 10:30:24;;;;;;;3.10;1.53;;;25.20;70.70;;;;;;5059895;28;20467;-67
2022/06/01 10:32:57;;;;;;;3.00;1.70;;;25.10;68.50;;;;;;5061765;28;20447;-67
2022/06/01 10:35:35;;;;;;;4.93;2.27;;;25.50;66.80;;;;;;5060830;28;20447;-68
2022/06/01 10:38:08;;;;;;;3.20;1.93;;;25.50;65.20;;;;;;5061060;28;20474;-67
2022/06/01 10:40:41;;;;;;;5.20;2.10;;;25.60;65.60;;;;;;5066647;28;20470;-68
2022/06/01 10:43:19;;;;;;;4.07;1.70;;;26.10;65.90;;;;;;5072138;28;20439;-68
2022/06/01 10:45:50;;;;;;;3.70;2.00;;;26.50;62.90;;;;;;5067504;28;20973;-69
2022/06/01 10:48:24;;;;;;;4.00;2.00;;;26.50;61.90;;;;;;5072171;28;20435;-68
2022/06/01 10:50:56;;;;;;;3.73;1.90;;;26.10;63.00;;;;;;5066941;28;20465;-69
2022/06/01 10:53:34;;;;;;;3.40;1.70;;;26.20;63.60;;;;;;5069694;28;20448;-68
2022/06/01 10:56:01;;;;;;;2.50;1.40;;;26.00;61.60;;;;;;5072000;28;20457;-67
2022/06/01 10:58:31;;;;;;;2.50;1.90;;;25.30;60.30;;;;;;5072366;28;20485;-67
2022/06/01 11:01:09;;;;;;;3.80;1.70;;;25.00;62.30;;;;;;5070351;28;20945;-68
2022/06/01 11:04:22;;;;;;;2.40;1.53;;;24.40;60.50;;;;;;5067515;28;20451;-67
2022/06/01 11:07:23;;;;;;;3.70;1.67;;;24.50;62.10;;;;;;4999717;28;20549;-65
2022/06/01 11:10:00;;;;;;;2.73;1.70;;;25.10;61.60;;;;;;4987802;28;20454;-68
2022/06/01 11:12:36;;;;;;;2.60;1.60;;;25.20;59.10;;;;;;5035922;28;21041;-68
2022/06/01 11:15:12;;;;;;;3.70;1.77;;;24.80;60.70;;;;;;5050240;28;20450;-68
2022/06/01 11:17:45;;;;;;;3.83;1.50;;;24.80;59.70;;;;;;5050457;28;20479;-68
2022/06/01 11:20:28;;;;;;;2.90;1.77;;;25.40;60.50;;;;;;5057314;28;20470;-67
2022/06/01 11:23:12;;;;;;;3.83;1.63;;;25.10;58.80;;;;;;5067908;28;20443;-67
2022/06/01 11:25:49;;;;;;;3.30;2.00;;;24.80;60.60;;;;;;5071387;28;20459;-67
2022/06/01 11:28:35;;;;;;;5.20;1.40;;;25.30;59.60;;;;;;5071190;28;20488;-68
2022/06/01 11:31:12;;;;;;;2.30;1.50;;;25.60;60.10;;;;;;5070506;28;20467;-66
2022/06/01 11:33:44;;;;;;;3.33;1.70;;;25.60;60.80;;;;;;5071234;28;20482;-64
2022/06/01 11:36:22;;;;;;;2.70;1.43;;;25.50;59.00;;;;;;5071023;28;20459;-66
2022/06/01 11:38:54;;;;;;;5.00;1.70;;;25.40;59.40;;;;;;5068062;28;20482;-67
2022/06/01 11:41:25;;;;;;;2.40;1.40;;;25.50;59.50;;;;;;5066320;28;20478;-68
2022/06/01 11:43:56;;;;;;;2.93;1.57;;;26.00;57.60;;;;;;5068747;28;20451;-67
2022/06/01 11:46:36;;;;;;;3.63;1.60;;;26.00;54.80;;;;;;5065978;28;20447;-67
2022/06/01 11:49:12;;;;;;;3.10;1.60;;;26.50;57.20;;;;;;5065349;28;20824;-68
2022/06/01 11:51:48;;;;;;;2.80;1.27;;;26.80;53.50;;;;;;5059971;28;20454;-68
2022/06/01 11:54:25;;;;;;;3.80;1.63;;;26.70;52.90;;;;;;5065809;28;20455;-67
2022/06/01 11:56:55;;;;;;;2.37;1.53;;;26.20;54.70;;;;;;5056315;28;21079;-67
2022/06/01 11:59:29;;;;;;;4.40;1.43;;;25.60;56.10;;;;;;5055404;28;21082;-68
2022/06/01 12:02:05;;;;;;;2.67;1.80;;;25.80;57.10;;;;;;5058965;28;20484;-67
2022/06/01 12:04:50;;;;;;;4.80;1.90;;;26.60;56.90;;;;;;5059343;28;20446;-67
2022/06/01 12:07:22;;;;;;;5.43;1.70;;;26.90;55.00;;;;;;5057906;28;20444;-68
2022/06/01 12:09:51;;;;;;;3.40;1.50;;;27.50;54.50;;;;;;5062031;28;20829;-67
2022/06/01 12:12:26;;;;;;;3.07;1.60;;;27.90;52.50;;;;;;5063578;28;20447;-68
2022/06/01 12:14:59;;;;;;;2.50;1.60;;;27.90;53.50;;;;;;5063979;28;20534;-68
2022/06/01 12:17:30;;;;;;;6.20;2.10;;;28.00;52.90;;;;;;5068032;28;20453;-68
2022/06/01 12:20:45;;;;;;;3.53;1.60;;;27.90;52.10;;;;;;5066843;28;20522;-67
2022/06/01 12:29:32;;;;;;;2.50;1.80;;;26.60;53.60;;;;;;5066963;28;20423;-68
2022/06/01 12:32:10;;;;;;;2.93;1.53;;;26.20;54.00;;;;;;5059192;28;20459;-68
2022/06/01 12:34:54;;;;;;;3.37;1.80;;;25.80;55.00;;;;;;5057061;28;20443;-66
2022/06/01 12:37:26;;;;;;;4.87;2.10;;;25.40;56.20;;;;;;5061834;28;20447;-68
2022/06/01 12:39:58;;;;;;;3.30;1.80;;;24.80;57.30;;;;;;5065262;28;20577;-68
2022/06/01 12:42:31;;;;;;;4.20;2.30;;;24.40;59.10;;;;;;5065823;28;20998;-68
2022/06/01 12:45:01;;;;;;;5.27;1.73;;;24.40;59.10;;;;;;5064200;28;20471;-66
2022/06/01 12:47:32;;;;;;;4.40;2.00;;;24.20;59.00;;;;;;5068814;28;20454;-67
2022/06/01 12:50:09;;;;;;;3.07;1.87;;;24.30;58.00;;;;;;5063285;28;20561;-66
2022/06/01 12:52:36;;;;;;;3.60;1.70;;;24.60;58.70;;;;;;5059090;28;20831;-68
2022/06/01 12:55:07;;;;;;;5.70;1.70;;;24.60;59.00;;;;;;5068247;28;20963;-65
2022/06/01 12:57:38;;;;;;;3.10;1.70;;;24.50;58.60;;;;;;5067365;28;20443;-68
2022/06/01 13:00:09;;;;;;;4.43;2.00;;;24.30;60.80;;;;;;5064452;28;21122;-67
2022/06/01 13:02:37;;;;;;;4.23;2.13;;;24.10;60.10;;;;;;5066780;28;20913;-67
2022/06/01 13:05:08;;;;;;;3.10;2.20;;;24.00;60.50;;;;;;5058667;28;20828;-67
2022/06/01 13:07:39;;;;;;;3.60;2.10;;;24.50;60.70;;;;;;5069231;28;20443;-67
2022/06/01 13:10:08;;;;;;;2.50;1.67;;;25.70;61.60;;;;;;5068377;28;20500;-67
2022/06/01 13:12:35;;;;;;;3.03;1.90;;;26.90;58.60;;;;;;5069211;28;20447;-68
2022/06/01 13:15:16;;;;;;;3.43;2.17;;;26.20;57.90;;;;;;5069150;28;20522;-68
2022/06/01 13:17:50;;;;;;;2.90;2.20;;;25.60;59.10;;;;;;5066190;28;20903;-68
2022/06/01 13:20:24;;;;;;;2.70;1.70;;;25.00;62.00;;;;;;5065990;28;20458;-67
2022/06/01 13:22:53;;;;;;;3.33;2.10;;;25.10;61.30;;;;;;5068978;28;20450;-68
2022/06/01 13:25:25;;;;;;;3.17;1.90;;;25.80;61.20;;;;;;5073586;28;20824;-66
2022/06/01 13:27:53;;;;;;;4.10;2.13;;;26.90;59.10;;;;;;5061653;28;20850;-67
2022/06/01 13:30:20;;;;;;;3.53;2.20;;;27.50;57.90;;;;;;5066773;28;20478;-69
2022/06/01 13:32:50;;;;;;;4.57;2.30;;;27.70;58.30;;;;;;5068313;28;20450;-69
2022/06/01 13:35:32;;;;;;;3.70;2.27;;;28.20;56.80;;;;;;5066933;28;20478;-69
2022/06/01 13:38:01;;;;;;;3.63;2.40;;;28.90;57.20;;;;;;5067155;28;20522;-67
2022/06/01 13:40:30;;;;;;;5.20;2.10;;;28.70;55.30;;;;;;5066446;28;20468;-67